createdAt,value
2022-10-17T00:00:56.092Z,27.33
2022-10-17T00:03:22.722Z,25.38
2022-10-17T00:05:49.299Z,33.88
2022-10-17T00:08:17.614Z,34.10
2022-10-17T00:10:44.257Z,37.72
2022-10-17T00:13:15.453Z,35.40
2022-10-17T00:15:44.909Z,33.35
2022-10-17T00:18:11.651Z,32.33
2022-10-17T00:20:38.130Z,32.92
2022-10-17T00:23:04.731Z,40.08
2022-10-17T00:25:31.342Z,35.78
2022-10-17T00:28:00.731Z,33.40
2022-10-17T00:30:27.436Z,26.67
2022-10-17T00:33:03.319Z,31.52
2022-10-17T00:35:29.976Z,30.42
2022-10-17T00:38:03.811Z,31.73
2022-10-17T00:40:32.512Z,29.92
2022-10-17T00:42:59.041Z,32.65
2022-10-17T00:45:31.565Z,34.05
2022-10-17T00:48:10.023Z,30.08
2022-10-17T00:50:40.175Z,28.45
2022-10-17T00:53:10.774Z,27.83
2022-10-17T00:55:51.096Z,33.80
2022-10-17T00:58:19.158Z,30.30
2022-10-17T01:00:49.599Z,33.03
2022-10-17T01:03:21.630Z,27.67
2022-10-17T01:05:49.884Z,28.13
2022-10-17T01:08:16.853Z,29.98
2022-10-17T01:10:48.579Z,27.85
2022-10-17T01:13:42.987Z,35.05
2022-10-17T01:16:49.129Z,32.50
2022-10-17T01:19:28.034Z,30.90
2022-10-17T01:22:19.111Z,29.63
2022-10-17T01:25:14.609Z,24.05
2022-10-17T01:28:20.026Z,27.40
2022-10-17T01:31:05.741Z,23.30
2022-10-17T01:33:53.600Z,24.75
2022-10-17T01:36:22.930Z,25.58
2022-10-17T01:38:55.164Z,26.10
2022-10-17T01:41:44.440Z,23.65
2022-10-17T01:44:28.131Z,25.02
2022-10-17T01:47:01.894Z,27.60
2022-10-17T01:49:32.110Z,25.60
2022-10-17T01:52:08.895Z,21.42
2022-10-17T01:54:49.655Z,24.27
2022-10-17T01:57:29.854Z,26.60
2022-10-17T01:59:57.458Z,25.00
2022-10-17T02:02:29.355Z,20.08
2022-10-17T02:07:25.601Z,24.30
2022-10-17T02:09:52.619Z,19.30
2022-10-17T02:12:42.992Z,19.92
2022-10-17T02:15:42.543Z,22.27
2022-10-17T02:18:36.800Z,21.00
2022-10-17T02:21:09.005Z,21.08
2022-10-17T02:23:48.655Z,19.45
2022-10-17T02:26:25.967Z,19.15
2022-10-17T02:29:01.645Z,22.58
2022-10-17T02:31:41.939Z,18.40
2022-10-17T02:34:16.255Z,16.95
2022-10-17T02:36:48.270Z,20.48
2022-10-17T02:39:16.463Z,17.35
2022-10-17T02:44:27.612Z,14.55
2022-10-17T02:47:03.802Z,20.98
2022-10-17T02:49:36.620Z,15.48
2022-10-17T02:52:41.113Z,16.00
2022-10-17T02:55:24.525Z,18.88
2022-10-17T02:57:59.062Z,22.40
2022-10-17T03:00:28.767Z,17.95
2022-10-17T03:03:01.907Z,15.65
2022-10-17T03:05:29.740Z,17.85
2022-10-17T03:07:57.044Z,18.42
2022-10-17T03:10:25.985Z,15.68
2022-10-17T03:12:54.675Z,16.95
2022-10-17T03:15:21.257Z,17.40
2022-10-17T03:17:47.767Z,17.88
2022-10-17T03:20:14.561Z,16.63
2022-10-17T03:22:41.083Z,18.38
2022-10-17T03:25:09.100Z,14.07
2022-10-17T03:27:35.725Z,15.38
2022-10-17T03:30:02.321Z,18.30
2022-10-17T03:32:28.764Z,15.50
2022-10-17T03:34:55.228Z,16.27
2022-10-17T03:37:21.782Z,16.45
2022-10-17T03:39:48.298Z,20.85
2022-10-17T03:42:14.748Z,17.52
2022-10-17T03:44:41.232Z,18.08
2022-10-17T03:47:09.330Z,15.38
2022-10-17T03:49:41.843Z,15.95
2022-10-17T03:52:12.702Z,18.98
2022-10-17T03:54:39.247Z,20.08
2022-10-17T03:57:05.786Z,20.05
2022-10-17T03:59:32.387Z,20.27
2022-10-17T04:01:58.803Z,18.35
2022-10-17T04:04:25.416Z,13.63
2022-10-17T04:06:51.888Z,20.13
2022-10-17T04:09:18.443Z,17.95
2022-10-17T04:11:44.996Z,14.55
2022-10-17T04:14:11.551Z,16.67
2022-10-17T04:16:38.829Z,19.13
2022-10-17T04:19:05.649Z,16.35
2022-10-17T04:21:32.247Z,16.05
2022-10-17T04:24:00.741Z,19.35
2022-10-17T04:26:28.158Z,14.35
2022-10-17T04:28:54.803Z,16.20
2022-10-17T04:31:21.382Z,15.73
2022-10-17T04:33:49.349Z,13.20
2022-10-17T04:36:18.973Z,14.50
2022-10-17T04:38:49.552Z,16.67
2022-10-17T04:41:20.045Z,16.75
2022-10-17T04:43:51.034Z,15.05
2022-10-17T04:46:18.466Z,16.77
2022-10-17T04:48:45.213Z,16.65
2022-10-17T04:51:15.011Z,19.48
2022-10-17T04:53:43.157Z,17.00
2022-10-17T04:56:18.155Z,22.77
2022-10-17T04:58:45.646Z,17.15
2022-10-17T05:01:15.786Z,14.77
2022-10-17T05:03:48.564Z,16.65
2022-10-17T05:06:24.243Z,18.20
2022-10-17T05:08:50.889Z,15.75
2022-10-17T05:11:28.916Z,20.60
2022-10-17T05:13:57.860Z,12.63
2022-10-17T05:16:25.762Z,13.38
2022-10-17T05:18:55.167Z,14.45
2022-10-17T05:21:25.166Z,19.08
2022-10-17T05:23:53.038Z,22.97
2022-10-17T05:26:19.908Z,18.45
2022-10-17T05:28:46.580Z,16.27
2022-10-17T05:31:13.359Z,20.92
2022-10-17T05:33:42.094Z,20.08
2022-10-17T05:36:11.713Z,23.50
2022-10-17T05:38:38.303Z,18.58
2022-10-17T05:41:06.118Z,17.95
2022-10-17T05:43:34.387Z,19.65
2022-10-17T05:46:05.093Z,16.15
2022-10-17T05:48:32.064Z,16.92
2022-10-17T05:51:00.543Z,21.40
2022-10-17T05:53:30.079Z,17.85
2022-10-17T05:55:58.831Z,24.10
2022-10-17T05:58:45.543Z,18.90
2022-10-17T06:01:15.427Z,31.85
2022-10-17T06:03:42.011Z,17.55
2022-10-17T06:06:13.263Z,22.38
2022-10-17T06:08:40.612Z,18.52
2022-10-17T06:11:09.968Z,19.33
2022-10-17T06:13:37.992Z,23.38
2022-10-17T06:16:04.703Z,17.88
2022-10-17T06:18:31.350Z,20.73
2022-10-17T06:21:05.696Z,24.42
2022-10-17T06:23:32.467Z,20.10
2022-10-17T06:26:02.977Z,23.25
2022-10-17T06:28:30.136Z,20.83
2022-10-17T06:30:57.838Z,26.83
2022-10-17T06:33:24.695Z,21.65
2022-10-17T06:35:52.636Z,46.45
2022-10-17T06:38:19.481Z,23.17
2022-10-17T06:40:46.009Z,20.92
2022-10-17T06:43:12.743Z,24.70
2022-10-17T06:45:40.239Z,19.85
2022-10-17T06:48:07.849Z,18.45
2022-10-17T06:50:34.812Z,23.85
2022-10-17T06:53:01.327Z,24.20
2022-10-17T06:55:27.806Z,18.35
2022-10-17T06:57:57.007Z,23.45
2022-10-17T07:00:26.884Z,28.48
2022-10-17T07:02:53.552Z,21.63
2022-10-17T07:05:20.198Z,17.80
2022-10-17T07:07:51.076Z,21.33
2022-10-17T07:10:18.684Z,17.58
2022-10-17T07:12:45.969Z,18.20
2022-10-17T07:15:13.149Z,32.33
2022-10-17T07:17:39.833Z,26.98
2022-10-17T07:20:09.967Z,29.00
2022-10-17T07:22:39.476Z,23.08
2022-10-17T07:25:07.876Z,25.55
2022-10-17T07:27:34.610Z,24.52
2022-10-17T07:30:01.219Z,27.60
2022-10-17T07:32:27.753Z,31.80
2022-10-17T07:34:57.496Z,28.98
2022-10-17T07:37:24.214Z,22.83
2022-10-17T07:39:51.114Z,26.75
2022-10-17T07:42:17.827Z,30.20
2022-10-17T07:44:47.592Z,31.45
2022-10-17T07:47:14.262Z,26.23
2022-10-17T07:49:42.673Z,26.10
2022-10-17T07:52:13.808Z,32.85
2022-10-17T07:54:40.437Z,26.92
2022-10-17T07:57:07.726Z,38.47
2022-10-17T07:59:35.535Z,25.60
2022-10-17T08:02:02.157Z,34.03
2022-10-17T08:04:29.248Z,43.03
2022-10-17T08:07:05.465Z,26.02
2022-10-17T08:09:38.389Z,28.35
2022-10-17T08:12:05.361Z,35.88
2022-10-17T08:14:34.401Z,30.58
2022-10-17T08:17:06.060Z,30.27
2022-10-17T08:19:33.553Z,32.25
2022-10-17T08:22:01.232Z,33.05
2022-10-17T08:24:28.135Z,32.63
2022-10-17T08:26:56.252Z,34.10
2022-10-17T08:29:22.900Z,38.40
2022-10-17T08:31:52.405Z,33.60
2022-10-17T08:34:29.516Z,38.63
2022-10-17T08:36:56.861Z,36.75
2022-10-17T08:39:23.508Z,37.70
2022-10-17T08:42:02.112Z,31.35
2022-10-17T08:44:50.592Z,36.97
2022-10-17T08:47:27.804Z,41.20
2022-10-17T08:49:59.403Z,33.97
2022-10-17T08:52:49.025Z,33.95
2022-10-17T08:55:23.669Z,26.85
2022-10-17T08:58:00.062Z,24.13
2022-10-17T09:00:30.193Z,38.45
2022-10-17T09:02:59.618Z,29.13
2022-10-17T09:05:35.175Z,25.52
2022-10-17T09:08:16.447Z,45.92
2022-10-17T09:11:23.499Z,36.78
2022-10-17T09:14:11.105Z,36.33
2022-10-17T09:17:16.840Z,37.80
2022-10-17T09:20:05.816Z,32.22
2022-10-17T09:22:50.290Z,39.22
2022-10-17T09:25:20.050Z,35.13
2022-10-17T09:27:50.590Z,37.33
2022-10-17T09:30:54.479Z,34.72
2022-10-17T09:33:35.409Z,30.92
2022-10-17T09:36:08.733Z,43.55
2022-10-17T09:38:42.179Z,30.60
2022-10-17T09:42:01.191Z,27.70
2022-10-17T09:44:45.509Z,29.13
2022-10-17T09:47:33.424Z,31.27
2022-10-17T09:50:09.038Z,33.10
2022-10-17T09:52:47.685Z,28.85
2022-10-17T09:55:50.953Z,32.13
2022-10-17T09:58:17.684Z,42.83
2022-10-17T10:00:49.166Z,42.95
2022-10-17T10:03:18.991Z,45.55
2022-10-17T10:06:05.544Z,35.17
2022-10-17T10:08:38.096Z,46.83
2022-10-17T10:11:09.636Z,38.45
2022-10-17T10:13:40.275Z,53.58
2022-10-17T10:16:22.424Z,41.60
2022-10-17T10:18:51.815Z,44.85
2022-10-17T10:21:26.433Z,42.42
2022-10-17T10:24:10.156Z,51.33
2022-10-17T10:26:46.620Z,46.85
2022-10-17T10:29:34.258Z,51.55
2022-10-17T10:32:22.194Z,38.63
2022-10-17T10:34:59.578Z,38.03
2022-10-17T10:37:34.014Z,43.50
2022-10-17T10:40:18.713Z,51.33
2022-10-17T10:42:54.258Z,37.13
2022-10-17T10:45:51.245Z,35.45
2022-10-17T10:48:38.080Z,32.58
2022-10-17T10:51:13.541Z,38.60
2022-10-17T10:53:53.584Z,49.97
2022-10-17T10:56:26.137Z,37.72
2022-10-17T10:59:14.552Z,40.08
2022-10-17T11:02:05.136Z,37.50
2022-10-17T11:04:59.916Z,47.28
2022-10-17T11:08:20.481Z,47.25
2022-10-17T11:11:19.934Z,41.72
2022-10-17T11:13:58.873Z,36.97
2022-10-17T11:16:43.733Z,41.25
2022-10-17T11:19:16.087Z,39.03
2022-10-17T11:22:38.526Z,34.40
2022-10-17T11:27:40.144Z,35.47
2022-10-17T11:30:07.236Z,36.10
2022-10-17T11:32:44.016Z,40.08
2022-10-17T11:35:34.233Z,38.58
2022-10-17T11:38:28.017Z,38.22
2022-10-17T11:41:03.124Z,44.67
2022-10-17T11:43:41.216Z,32.88
2022-10-17T11:46:24.238Z,31.52
2022-10-17T11:49:17.420Z,38.00
2022-10-17T11:52:01.301Z,30.17
2022-10-17T11:54:56.186Z,28.67
2022-10-17T11:57:39.037Z,41.17
2022-10-17T12:00:17.444Z,40.05
2022-10-17T12:02:55.983Z,45.45
2022-10-17T12:05:34.206Z,30.65
2022-10-17T12:08:19.034Z,32.65
2022-10-17T12:11:06.891Z,40.90
2022-10-17T12:13:33.352Z,34.90
2022-10-17T12:16:21.519Z,28.42
2022-10-17T12:19:06.313Z,33.13
2022-10-17T12:22:01.123Z,28.65
2022-10-17T12:24:45.971Z,34.70
2022-10-17T12:27:35.991Z,28.33
2022-10-17T12:30:14.188Z,33.00
2022-10-17T12:33:06.284Z,32.45
2022-10-17T12:35:35.332Z,33.30
2022-10-17T12:38:18.877Z,27.05
2022-10-17T12:40:50.245Z,29.60
2022-10-17T12:43:17.079Z,34.03
2022-10-17T12:45:51.798Z,27.75
2022-10-17T12:48:36.802Z,29.63
2022-10-17T12:54:00.885Z,27.10
2022-10-17T12:56:40.077Z,23.10
2022-10-17T12:59:22.447Z,27.65
2022-10-17T13:01:58.996Z,38.45
2022-10-17T13:04:28.185Z,26.75
2022-10-17T13:06:58.710Z,23.48
2022-10-17T13:09:32.048Z,32.13
2022-10-17T13:12:03.252Z,25.58
2022-10-17T13:14:32.836Z,21.25
2022-10-17T13:16:59.380Z,27.85
2022-10-17T13:19:34.697Z,25.30
2022-10-17T13:22:07.042Z,19.05
2022-10-17T13:24:39.490Z,18.50
2022-10-17T13:27:22.001Z,22.60
2022-10-17T13:29:50.942Z,22.15
2022-10-17T13:32:17.652Z,23.20
2022-10-17T13:34:44.359Z,22.70
2022-10-17T13:37:15.670Z,22.08
2022-10-17T13:39:55.570Z,20.17
2022-10-17T13:42:27.849Z,19.23
2022-10-17T13:44:57.964Z,19.10
2022-10-17T13:47:45.228Z,21.83
2022-10-17T13:50:43.695Z,23.75
2022-10-17T13:53:32.487Z,18.98
2022-10-17T13:56:29.239Z,23.15
2022-10-17T13:59:21.563Z,23.13
2022-10-17T14:01:49.909Z,20.35
2022-10-17T14:04:20.384Z,17.38
2022-10-17T14:06:49.843Z,16.65
2022-10-17T14:09:25.188Z,19.33
2022-10-17T14:12:17.156Z,19.65
2022-10-17T14:15:09.259Z,20.35
2022-10-17T14:17:41.131Z,19.05
2022-10-17T14:20:57.140Z,16.50
2022-10-17T14:23:21.933Z,17.83
2022-10-17T14:26:12.705Z,19.48
2022-10-17T14:28:41.386Z,14.73
2022-10-17T14:31:20.138Z,19.70
2022-10-17T14:33:50.870Z,21.50
2022-10-17T14:36:29.429Z,20.08
2022-10-17T14:38:58.339Z,19.17
2022-10-17T14:41:47.642Z,13.20
2022-10-17T14:44:29.090Z,17.17
2022-10-17T14:47:38.136Z,16.52
2022-10-17T14:52:40.829Z,15.68
2022-10-17T14:55:28.283Z,15.23
2022-10-17T14:57:57.487Z,13.60
2022-10-17T15:00:28.027Z,13.35
2022-10-17T15:02:56.140Z,18.45
2022-10-17T15:05:25.907Z,14.27
2022-10-17T15:07:58.395Z,15.73
2022-10-17T15:10:42.285Z,15.55
2022-10-17T15:13:27.121Z,19.88
2022-10-17T15:15:54.569Z,16.10
2022-10-17T15:18:21.199Z,17.70
2022-10-17T15:20:51.969Z,20.58
2022-10-17T15:23:26.312Z,19.13
2022-10-17T15:25:57.258Z,19.48
2022-10-17T15:28:24.163Z,26.60
2022-10-17T15:30:53.440Z,20.15
2022-10-17T15:33:20.137Z,16.70
2022-10-17T15:35:51.602Z,18.60
2022-10-17T15:38:18.269Z,16.73
2022-10-17T15:40:48.970Z,20.75
2022-10-17T15:43:25.881Z,19.95
2022-10-17T15:45:52.665Z,15.45
2022-10-17T15:48:32.959Z,17.83
2022-10-17T15:50:59.573Z,17.23
2022-10-17T15:53:28.070Z,18.60
2022-10-17T15:56:00.186Z,17.60
2022-10-17T15:58:36.651Z,17.80
2022-10-17T16:01:51.799Z,19.63
2022-10-17T16:04:29.150Z,38.15
2022-10-17T16:06:55.806Z,18.40
2022-10-17T16:09:22.506Z,20.10
2022-10-17T16:11:48.959Z,18.08
2022-10-17T16:14:18.223Z,21.42
2022-10-17T16:16:44.792Z,18.33
2022-10-17T16:19:11.535Z,25.00
2022-10-17T16:21:40.274Z,22.35
2022-10-17T16:24:09.703Z,18.52
2022-10-17T16:26:36.256Z,22.27
2022-10-17T16:29:04.758Z,18.67
2022-10-17T16:31:34.622Z,20.83
2022-10-17T16:34:02.681Z,22.52
2022-10-17T16:36:33.092Z,20.67
2022-10-17T16:38:59.740Z,23.60
2022-10-17T16:41:30.339Z,22.60
2022-10-17T16:43:59.628Z,24.42
2022-10-17T16:46:28.122Z,26.17
2022-10-17T16:48:57.495Z,19.70
2022-10-17T16:51:24.480Z,17.95
2022-10-17T16:53:54.227Z,20.27
2022-10-17T16:56:25.058Z,23.95
2022-10-17T16:58:51.901Z,22.77
2022-10-17T17:01:21.063Z,19.60
2022-10-17T17:03:48.238Z,15.00
2022-10-17T17:06:24.053Z,19.17
2022-10-17T17:08:51.218Z,20.67
2022-10-17T17:11:20.539Z,16.45
2022-10-17T17:13:48.875Z,22.42
2022-10-17T17:16:23.304Z,17.52
2022-10-17T17:18:55.403Z,20.77
2022-10-17T17:21:22.350Z,17.00
2022-10-17T17:23:49.419Z,16.45
2022-10-17T17:26:20.594Z,18.25
2022-10-17T17:28:48.556Z,22.83
2022-10-17T17:31:24.207Z,17.45
2022-10-17T17:33:51.659Z,18.67
2022-10-17T17:36:22.848Z,18.23
2022-10-17T17:38:52.995Z,25.98
2022-10-17T17:41:20.431Z,23.30
2022-10-17T17:43:48.611Z,24.77
2022-10-17T17:46:18.193Z,26.05
2022-10-17T17:48:46.654Z,22.40
2022-10-17T17:51:15.168Z,19.85
2022-10-17T17:53:44.709Z,18.15
2022-10-17T17:56:16.834Z,18.40
2022-10-17T17:58:45.856Z,21.08
2022-10-17T18:01:18.278Z,21.40
2022-10-17T18:03:46.097Z,25.80
2022-10-17T18:06:13.499Z,24.40
2022-10-17T18:08:40.147Z,20.77
2022-10-17T18:11:07.862Z,21.98
2022-10-17T18:13:34.309Z,24.98
2022-10-17T18:16:01.984Z,27.08
2022-10-17T18:18:30.522Z,17.02
2022-10-17T18:21:01.154Z,20.65
2022-10-17T18:23:27.679Z,23.70
2022-10-17T18:26:00.710Z,22.75
2022-10-17T18:28:27.773Z,26.15
2022-10-17T18:30:56.729Z,18.70
2022-10-17T18:33:23.231Z,21.92
2022-10-17T18:35:50.035Z,28.25
2022-10-17T18:38:20.070Z,22.30
2022-10-17T18:40:50.799Z,19.63
2022-10-17T18:43:17.481Z,20.00
2022-10-17T18:45:43.943Z,24.17
2022-10-17T18:48:10.462Z,24.08
2022-10-17T18:50:39.760Z,20.88
2022-10-17T18:53:06.519Z,22.83
2022-10-17T18:55:33.042Z,23.15
2022-10-17T18:58:00.733Z,25.90
2022-10-17T19:00:27.228Z,20.98
2022-10-17T19:02:53.727Z,22.33
2022-10-17T19:05:20.243Z,23.05
2022-10-17T19:07:47.366Z,23.77
2022-10-17T19:10:13.913Z,25.77
2022-10-17T19:12:40.583Z,26.40
2022-10-17T19:15:07.519Z,22.70
2022-10-17T19:17:34.032Z,24.05
2022-10-17T19:20:00.580Z,23.45
2022-10-17T19:22:28.313Z,19.25
2022-10-17T19:24:57.288Z,23.83
2022-10-17T19:27:23.859Z,21.25
2022-10-17T19:29:53.346Z,26.25
2022-10-17T19:32:22.205Z,24.67
2022-10-17T19:34:49.448Z,27.20
2022-10-17T19:37:16.027Z,26.23
2022-10-17T19:39:42.514Z,36.85
2022-10-17T19:42:11.302Z,25.45
2022-10-17T19:44:38.116Z,30.17
2022-10-17T19:47:04.630Z,23.60
2022-10-17T19:49:31.188Z,24.77
2022-10-17T19:51:57.765Z,23.42
2022-10-17T19:54:24.301Z,25.83
2022-10-17T19:56:51.336Z,28.27
2022-10-17T19:59:19.255Z,26.67
2022-10-17T20:01:49.056Z,27.65
2022-10-17T20:04:15.875Z,32.15
2022-10-17T20:06:43.123Z,22.73
2022-10-17T20:09:15.721Z,26.02
2022-10-17T20:11:44.159Z,24.77
2022-10-17T20:14:10.925Z,22.85
2022-10-17T20:16:37.623Z,20.00
2022-10-17T20:19:07.911Z,26.77
2022-10-17T20:21:36.572Z,22.88
2022-10-17T20:24:05.818Z,28.98
2022-10-17T20:26:38.026Z,26.55
2022-10-17T20:29:10.724Z,24.98
2022-10-17T20:31:37.710Z,23.60
2022-10-17T20:34:04.299Z,27.17
2022-10-17T20:36:33.018Z,23.98
2022-10-17T20:39:02.845Z,21.05
2022-10-17T20:41:29.332Z,24.38
2022-10-17T20:43:56.078Z,26.55
2022-10-17T20:46:36.236Z,17.15
2022-10-17T20:49:05.326Z,27.27
2022-10-17T20:51:32.055Z,23.88
2022-10-17T20:53:58.649Z,21.33
2022-10-17T20:56:27.800Z,29.65
2022-10-17T20:58:56.981Z,21.50
2022-10-17T21:01:24.701Z,25.05
2022-10-17T21:03:52.301Z,31.35
2022-10-17T21:06:19.746Z,28.52
2022-10-17T21:08:47.865Z,22.75
2022-10-17T21:11:20.411Z,22.65
2022-10-17T21:13:48.584Z,32.78
2022-10-17T21:16:17.647Z,25.65
2022-10-17T21:18:45.696Z,24.27
2022-10-17T21:21:17.705Z,19.65
2022-10-17T21:23:47.460Z,29.85
2022-10-17T21:26:14.973Z,26.83
2022-10-17T21:28:42.687Z,21.45
2022-10-17T21:31:20.154Z,29.45
2022-10-17T21:33:48.820Z,29.08
2022-10-17T21:36:19.477Z,24.45
2022-10-17T21:38:51.064Z,29.35
2022-10-17T21:41:20.085Z,27.98
2022-10-17T21:43:47.278Z,24.23
2022-10-17T21:46:19.919Z,26.38
2022-10-17T21:48:47.995Z,21.40
2022-10-17T21:51:16.714Z,30.25
2022-10-17T21:53:43.717Z,31.55
2022-10-17T21:56:15.109Z,27.35
2022-10-17T21:58:42.187Z,27.73
2022-10-17T22:01:19.964Z,27.55
2022-10-17T22:03:49.594Z,21.80
2022-10-17T22:06:39.198Z,24.88
2022-10-17T22:09:08.238Z,24.58
2022-10-17T22:11:35.672Z,31.77
2022-10-17T22:14:05.547Z,27.35
2022-10-17T22:16:32.887Z,31.98
2022-10-17T22:19:08.695Z,32.72
2022-10-17T22:21:37.570Z,28.77
2022-10-17T22:24:10.771Z,29.00
2022-10-17T22:26:40.006Z,28.45
2022-10-17T22:29:07.998Z,24.48
2022-10-17T22:31:37.193Z,28.45
2022-10-17T22:34:05.528Z,30.00
2022-10-17T22:36:32.987Z,23.92
2022-10-17T22:38:59.612Z,32.92
2022-10-17T22:41:26.879Z,25.50
2022-10-17T22:43:53.762Z,29.15
2022-10-17T22:46:23.189Z,25.10
2022-10-17T22:48:53.327Z,25.38
2022-10-17T22:51:20.310Z,29.58
2022-10-17T22:53:47.080Z,26.15
2022-10-17T22:56:16.990Z,28.65
2022-10-17T22:58:43.939Z,29.10
2022-10-17T23:01:15.397Z,26.75
2022-10-17T23:03:42.141Z,23.05
2022-10-17T23:06:11.753Z,27.10
2022-10-17T23:08:39.174Z,25.35
2022-10-17T23:11:06.433Z,21.35
2022-10-17T23:13:33.257Z,28.73
2022-10-17T23:16:00.000Z,26.92
2022-10-17T23:18:27.228Z,25.10
2022-10-17T23:20:59.025Z,31.45
2022-10-17T23:23:26.503Z,28.70
2022-10-17T23:25:57.468Z,23.10
2022-10-17T23:28:24.182Z,30.17
2022-10-17T23:30:51.125Z,22.70
2022-10-17T23:33:17.724Z,32.65
2022-10-17T23:35:44.407Z,30.63
2022-10-17T23:38:18.435Z,30.50
2022-10-17T23:40:53.943Z,28.48
2022-10-17T23:43:24.725Z,29.45
2022-10-17T23:45:54.090Z,30.02
2022-10-17T23:48:20.893Z,22.50
2022-10-17T23:50:47.589Z,26.73
2022-10-17T23:53:14.205Z,23.45
2022-10-17T23:55:49.230Z,22.35
2022-10-17T23:58:15.895Z,26.52
